Harwood, North Dakota
Current Conditions -  °F | °C
As of 1:53 PM on Wednesday 26 Nov 2014 (Local Time) from KFAR Reporting Station
Overcast Overcast  
Wind Chill: -14°   Ceiling: 10000
Heat Index:   Visibility: 10mi
Dew Point: -4°   Wind: 17mph
Humidity: 66%   Direction: 340°NNW
Pressure: 30.43"   Gusts: NA
Location:  46.98°N, 96.88°W
Report Text: KFAR 261953Z 34015KT 10SM OVC100 M15/M20 A3043 RMK AO2 SLP327 T11501200
Loading
Personal Weather Stations






























Interactive Weather Map New forecast layout! Learn more

10-Day Weather Forecast

Advertisements
Track Severe Weather on mobile